Аэропорт: Звартноц. Ереван

ICAO: UDYZ

METAR:
2022-01-28 08:00:00
UDYZ 280800Z VRB01KT 9999 FEW046 01/M07 Q1019 R09/010070 NOSIG
METAR:
2022-01-28 05:00:00
TAF UDYZ 280500Z 2806/2906 VRB04KT 9999 FEW040